Time;durP1;ratioP1;P1;durP2;ratioP2;P2;SDS_P1;SDS_P2;PMS_P1;PMS_P2;Temp;Humidity;BMP_temperature;BMP_pressure;BME280_temperature;BME280_humidity;BME280_pressure;Samples;Min_cycle;Max_cycle;Signal;HPM_P1;HPM_P2
2021/11/08 09:03:21;;;;;;;4.30;1.17;;;11.50;99.90;;;;;;4732901;23;20223;-68
2021/11/08 09:05:48;;;;;;;8.10;1.93;;;11.40;99.90;;;;;;4975139;28;20254;-69
2021/11/08 09:08:15;;;;;;;7.03;1.37;;;11.20;99.90;;;;;;4974763;28;20214;-69
2021/11/08 09:10:44;;;;;;;6.47;1.50;;;11.20;99.90;;;;;;4970651;28;20715;-69
2021/11/08 09:13:12;;;;;;;4.20;2.03;;;11.00;99.90;;;;;;4974952;28;20660;-70
2021/11/08 09:15:40;;;;;;;9.67;1.63;;;10.80;99.90;;;;;;4975039;28;20214;-70
2021/11/08 09:18:08;;;;;;;8.20;1.50;;;10.80;99.90;;;;;;4975170;28;20223;-69
2021/11/08 09:20:38;;;;;;;8.50;1.80;;;11.00;99.90;;;;;;4974466;28;20241;-70
2021/11/08 09:23:06;;;;;;;7.73;1.60;;;11.00;99.90;;;;;;4974761;28;20211;-69
2021/11/08 09:25:33;;;;;;;4.73;1.27;;;10.90;99.90;;;;;;4974982;28;20229;-69
2021/11/08 09:28:02;;;;;;;9.07;1.70;;;11.00;99.90;;;;;;4974313;28;20206;-70
2021/11/08 09:30:33;;;;;;;5.70;1.67;;;11.10;99.90;;;;;;4974765;28;20330;-70
2021/11/08 09:33:00;;;;;;;6.40;1.73;;;11.00;99.90;;;;;;4974999;28;20207;-69
2021/11/08 09:35:31;;;;;;;7.57;1.50;;;11.00;99.90;;;;;;4974719;28;20247;-70
2021/11/08 09:38:01;;;;;;;7.50;1.60;;;11.00;99.90;;;;;;4974690;28;20203;-69
2021/11/08 09:40:28;;;;;;;5.10;1.50;;;10.80;99.90;;;;;;4974164;28;20247;-70
2021/11/08 09:42:56;;;;;;;12.80;1.90;;;11.00;99.90;;;;;;4974748;28;20218;-69
2021/11/08 09:45:25;;;;;;;7.77;2.00;;;10.90;99.90;;;;;;4974484;28;20310;-69
2021/11/08 09:47:53;;;;;;;4.57;1.40;;;10.90;99.90;;;;;;4974609;28;20203;-70
2021/11/08 09:50:24;;;;;;;6.03;1.50;;;11.00;99.90;;;;;;4973872;28;20227;-69
2021/11/08 09:52:51;;;;;;;12.77;2.20;;;11.20;99.90;;;;;;4974664;28;20238;-69
2021/11/08 09:55:22;;;;;;;5.07;1.60;;;11.40;99.90;;;;;;4974475;28;20790;-69
2021/11/08 09:57:50;;;;;;;9.87;1.70;;;11.40;99.90;;;;;;4973568;28;20211;-71
2021/11/08 10:00:21;;;;;;;10.63;1.50;;;11.40;99.90;;;;;;4973902;28;20318;-70
2021/11/08 10:02:53;;;;;;;7.50;1.67;;;11.40;99.90;;;;;;4974072;28;20246;-70
2021/11/08 10:05:21;;;;;;;8.13;1.23;;;11.50;99.90;;;;;;4974225;28;20213;-70
2021/11/08 10:07:49;;;;;;;5.03;1.40;;;11.70;99.90;;;;;;4973721;28;20600;-71
2021/11/08 10:10:17;;;;;;;10.03;1.77;;;11.80;99.90;;;;;;4974277;28;20262;-69
2021/11/08 10:12:49;;;;;;;8.50;1.70;;;11.80;99.90;;;;;;4974104;28;20217;-71
2021/11/08 10:15:17;;;;;;;6.73;1.40;;;11.90;99.90;;;;;;4973899;28;20294;-70
2021/11/08 10:17:44;;;;;;;5.07;1.37;;;11.90;99.90;;;;;;4972759;28;20210;-70
2021/11/08 10:20:12;;;;;;;7.13;1.50;;;12.10;99.90;;;;;;4973419;28;20231;-70
2021/11/08 10:22:39;;;;;;;7.60;1.53;;;12.10;99.90;;;;;;4973929;28;20207;-69
2021/11/08 10:25:07;;;;;;;7.07;1.40;;;12.20;99.90;;;;;;4973822;28;20663;-69
2021/11/08 10:27:46;;;;;;;6.67;1.50;;;12.30;99.90;;;;;;4973946;28;20606;-69
2021/11/08 10:30:34;;;;;;;6.00;1.53;;;12.40;99.90;;;;;;4973991;28;20231;-68
2021/11/08 10:33:18;;;;;;;9.43;1.80;;;12.50;99.90;;;;;;4973553;28;20660;-69
2021/11/08 10:35:47;;;;;;;7.23;1.43;;;12.40;99.90;;;;;;4973781;28;20257;-69
2021/11/08 10:38:16;;;;;;;9.10;2.37;;;12.30;99.90;;;;;;4975041;28;20567;-69
2021/11/08 10:40:47;;;;;;;6.90;1.80;;;12.30;99.90;;;;;;4977916;28;20230;-69
2021/11/08 10:43:23;;;;;;;5.13;1.23;;;12.40;99.90;;;;;;4977935;28;20207;-73
2021/11/08 10:45:52;;;;;;;10.07;1.50;;;12.40;99.90;;;;;;4977526;28;20210;-71
2021/11/08 10:48:24;;;;;;;7.37;1.30;;;12.50;99.90;;;;;;4977447;28;20211;-69
2021/11/08 10:50:53;;;;;;;5.47;1.37;;;12.50;99.90;;;;;;4977384;28;20233;-70
2021/11/08 10:53:20;;;;;;;8.53;1.60;;;12.60;99.90;;;;;;4977460;28;20211;-69
2021/11/08 10:55:54;;;;;;;6.70;1.30;;;12.60;99.90;;;;;;4977708;28;20243;-70
2021/11/08 10:58:24;;;;;;;4.23;1.10;;;12.70;99.90;;;;;;4977493;28;20207;-71
2021/11/08 11:00:54;;;;;;;4.57;1.47;;;12.80;99.90;;;;;;4977078;28;20717;-70
2021/11/08 11:03:23;;;;;;;7.17;1.20;;;12.70;99.90;;;;;;4977317;28;20219;-69
2021/11/08 11:05:57;;;;;;;5.57;1.57;;;12.70;99.90;;;;;;4977138;28;20211;-69
2021/11/08 11:08:25;;;;;;;7.90;1.13;;;12.70;99.90;;;;;;4977453;28;20206;-70
2021/11/08 11:10:57;;;;;;;5.03;1.30;;;12.60;99.90;;;;;;4977340;28;20227;-68
2021/11/08 11:13:25;;;;;;;9.87;1.53;;;12.70;99.90;;;;;;4977209;28;20219;-70
2021/11/08 11:16:00;;;;;;;6.90;1.37;;;12.60;99.90;;;;;;4977264;28;20214;-70
2021/11/08 11:18:29;;;;;;;3.50;1.10;;;12.60;99.90;;;;;;4977319;28;20207;-70
2021/11/08 11:20:56;;;;;;;9.20;1.43;;;12.60;99.90;;;;;;4977028;28;20569;-71
2021/11/08 11:23:26;;;;;;;8.50;1.73;;;12.60;99.90;;;;;;4976948;28;20236;-70
2021/11/08 11:26:02;;;;;;;6.03;1.30;;;12.50;99.90;;;;;;4976651;28;20218;-71
2021/11/08 11:28:35;;;;;;;5.93;1.37;;;12.60;99.90;;;;;;4976112;28;20215;-68
2021/11/08 11:31:12;;;;;;;9.93;1.23;;;12.60;99.90;;;;;;4976636;28;20223;-69
2021/11/08 11:33:40;;;;;;;5.57;1.40;;;12.70;99.90;;;;;;4976434;28;20258;-70
2021/11/08 11:36:09;;;;;;;5.83;1.13;;;12.80;99.90;;;;;;4976876;28;20203;-70
2021/11/08 11:38:40;;;;;;;5.13;1.60;;;12.80;99.90;;;;;;4976294;28;20672;-70
2021/11/08 11:41:11;;;;;;;10.53;1.60;;;12.70;99.90;;;;;;4976919;28;20573;-70
2021/11/08 11:43:43;;;;;;;3.90;1.10;;;12.60;99.90;;;;;;4976694;28;20211;-70
2021/11/08 11:46:15;;;;;;;5.67;1.23;;;12.60;99.90;;;;;;4976615;28;20215;-70
2021/11/08 11:48:42;;;;;;;4.43;2.13;;;12.80;99.90;;;;;;4976159;28;20207;-70
2021/11/08 11:51:13;;;;;;;7.37;1.27;;;13.00;99.90;;;;;;4975484;28;20239;-70
2021/11/08 11:53:40;;;;;;;9.00;1.53;;;13.20;99.90;;;;;;4976688;28;20215;-70
2021/11/08 11:56:07;;;;;;;9.00;1.27;;;13.30;99.90;;;;;;4976067;28;20664;-70
2021/11/08 11:58:35;;;;;;;12.20;1.47;;;13.40;99.90;;;;;;4976350;28;20206;-70
2021/11/08 12:01:05;;;;;;;5.50;1.60;;;13.50;99.90;;;;;;4976283;28;20786;-70
2021/11/08 12:03:32;;;;;;;5.40;1.17;;;13.50;99.90;;;;;;4975875;28;20298;-70
2021/11/08 12:06:00;;;;;;;7.00;1.17;;;13.40;99.90;;;;;;4976676;28;20222;-69
2021/11/08 12:08:29;;;;;;;4.60;1.50;;;13.50;99.90;;;;;;4976024;28;20243;-69
2021/11/08 12:10:56;;;;;;;2.67;1.10;;;13.50;99.90;;;;;;4976306;28;20231;-69
2021/11/08 12:13:26;;;;;;;9.00;1.63;;;13.60;99.90;;;;;;4976024;28;20306;-70
2021/11/08 12:15:53;;;;;;;4.37;1.10;;;13.60;99.90;;;;;;4976239;28;20215;-69
2021/11/08 12:18:23;;;;;;;5.87;1.40;;;13.60;99.90;;;;;;4975841;28;20212;-69
2021/11/08 12:20:52;;;;;;;6.47;1.53;;;13.60;99.90;;;;;;4975789;28;20233;-71
2021/11/08 12:23:21;;;;;;;11.43;1.83;;;13.70;99.90;;;;;;4975985;28;20203;-72
2021/11/08 12:25:49;;;;;;;9.07;1.33;;;13.50;99.90;;;;;;4976475;28;20303;-70
2021/11/08 12:28:17;;;;;;;8.63;1.20;;;13.60;99.90;;;;;;4972190;28;20242;-70
2021/11/08 12:30:46;;;;;;;6.77;1.23;;;13.60;99.90;;;;;;4973981;28;20367;-72
2021/11/08 12:33:27;;;;;;;7.00;1.30;;;13.60;99.90;;;;;;4974909;28;20211;-70
2021/11/08 12:35:56;;;;;;;8.13;1.87;;;13.70;99.90;;;;;;4974291;28;20207;-69
2021/11/08 12:38:25;;;;;;;6.93;1.23;;;13.70;99.90;;;;;;4974847;28;20211;-70
2021/11/08 12:41:10;;;;;;;4.20;1.30;;;13.70;99.90;;;;;;4975349;28;20258;-71
2021/11/08 12:43:39;;;;;;;7.43;1.07;;;13.60;99.90;;;;;;4975571;28;20207;-69
2021/11/08 12:46:12;;;;;;;6.20;1.63;;;13.50;99.90;;;;;;4975908;28;20207;-69
2021/11/08 12:48:41;;;;;;;6.90;1.60;;;13.50;99.90;;;;;;4975182;28;20710;-70
2021/11/08 12:51:11;;;;;;;8.77;1.70;;;13.70;99.90;;;;;;4975365;28;20261;-72
2021/11/08 12:53:40;;;;;;;6.30;2.00;;;13.90;99.90;;;;;;4975376;28;20258;-71
2021/11/08 12:56:25;;;;;;;7.43;1.43;;;14.00;99.90;;;;;;4975429;28;20262;-70
2021/11/08 12:58:57;;;;;;;3.23;1.10;;;13.90;99.90;;;;;;4975110;28;20211;-70
2021/11/08 13:01:25;;;;;;;8.63;1.27;;;13.80;99.90;;;;;;4974936;28;20231;-69
2021/11/08 13:04:05;;;;;;;8.37;1.70;;;13.70;99.90;;;;;;4974801;28;20211;-70
2021/11/08 13:06:35;;;;;;;3.50;1.23;;;13.70;99.90;;;;;;4974973;28;20211;-71
2021/11/08 13:09:08;;;;;;;7.00;1.57;;;13.70;99.90;;;;;;4974697;28;20207;-71
2021/11/08 13:11:44;;;;;;;5.20;1.23;;;13.60;99.90;;;;;;4974833;28;20218;-70
2021/11/08 13:14:23;;;;;;;7.20;1.10;;;13.60;99.90;;;;;;4974777;28;20229;-73
2021/11/08 13:16:51;;;;;;;5.70;1.37;;;13.60;99.90;;;;;;4974288;28;20828;-72
2021/11/08 13:19:19;;;;;;;11.40;1.40;;;13.80;99.90;;;;;;4974595;28;20298;-71
2021/11/08 13:21:47;;;;;;;8.60;1.20;;;13.70;99.90;;;;;;4974694;28;20207;-72
2021/11/08 13:24:15;;;;;;;8.00;1.40;;;13.80;99.90;;;;;;4974714;28;20273;-73
2021/11/08 13:26:43;;;;;;;5.00;1.40;;;13.60;99.90;;;;;;4973186;28;20226;-70
2021/11/08 13:29:16;;;;;;;6.83;1.37;;;13.70;99.90;;;;;;4973156;28;20688;-71
2021/11/08 13:31:43;;;;;;;5.17;1.00;;;13.60;99.90;;;;;;4974542;28;20215;-72
2021/11/08 13:34:10;;;;;;;6.40;1.30;;;13.70;99.90;;;;;;4974801;28;20571;-73
2021/11/08 13:36:38;;;;;;;8.07;1.47;;;13.60;99.90;;;;;;4974806;28;20679;-74
2021/11/08 13:39:05;;;;;;;6.60;1.17;;;13.60;99.90;;;;;;4974444;28;20208;-74
2021/11/08 13:41:34;;;;;;;5.87;1.00;;;13.40;99.90;;;;;;4974546;28;20214;-73
2021/11/08 13:44:03;;;;;;;4.47;1.00;;;13.40;99.90;;;;;;4974300;28;20262;-71
2021/11/08 13:46:34;;;;;;;4.60;1.10;;;13.40;99.90;;;;;;4974767;28;20214;-71
2021/11/08 13:49:04;;;;;;;7.03;1.13;;;13.40;99.90;;;;;;4974103;28;20231;-73
2021/11/08 13:51:33;;;;;;;7.10;1.20;;;13.30;99.90;;;;;;4974533;28;20207;-73
2021/11/08 13:54:04;;;;;;;4.33;1.00;;;13.30;99.90;;;;;;4974231;28;20672;-73
2021/11/08 13:56:33;;;;;;;2.63;0.87;;;13.50;99.90;;;;;;4974505;28;20568;-75
2021/11/08 13:59:02;;;;;;;7.70;1.53;;;13.60;99.90;;;;;;4974262;28;20215;-73
2021/11/08 14:01:32;;;;;;;6.63;1.40;;;13.60;99.90;;;;;;4974585;28;20203;-73
2021/11/08 14:03:59;;;;;;;4.70;1.10;;;13.60;99.90;;;;;;4973914;28;20213;-74
2021/11/08 14:06:34;;;;;;;2.47;0.90;;;13.40;99.90;;;;;;4973850;28;20213;-72
2021/11/08 14:09:06;;;;;;;6.53;1.60;;;13.40;99.90;;;;;;4974085;28;20235;-73
2021/11/08 14:11:35;;;;;;;3.40;1.10;;;13.40;99.90;;;;;;4973848;28;20274;-73
2021/11/08 14:14:05;;;;;;;3.20;1.17;;;13.40;99.90;;;;;;4973692;28;20230;-73
2021/11/08 14:16:32;;;;;;;8.07;1.23;;;13.40;99.90;;;;;;4974095;28;20203;-73
2021/11/08 14:18:59;;;;;;;5.47;1.40;;;13.40;99.90;;;;;;4973573;28;20294;-73
2021/11/08 14:21:28;;;;;;;6.30;1.33;;;13.40;99.90;;;;;;4974223;28;20250;-72
2021/11/08 14:24:00;;;;;;;6.60;1.30;;;13.40;99.90;;;;;;4974001;28;20218;-73
2021/11/08 14:26:29;;;;;;;7.80;1.60;;;13.40;99.90;;;;;;4973821;28;20572;-70
2021/11/08 14:28:57;;;;;;;5.40;1.03;;;13.60;99.90;;;;;;4970139;28;20711;-71
2021/11/08 14:31:27;;;;;;;4.57;1.23;;;13.60;99.90;;;;;;4971661;28;20231;-72
2021/11/08 14:33:56;;;;;;;4.23;1.50;;;13.60;99.90;;;;;;4971399;28;20211;-71
2021/11/08 14:36:26;;;;;;;5.67;1.30;;;13.50;99.90;;;;;;4971935;28;20235;-71
2021/11/08 14:39:00;;;;;;;11.10;1.30;;;13.40;99.90;;;;;;4971942;28;20639;-70
2021/11/08 14:41:32;;;;;;;5.40;1.30;;;13.30;99.90;;;;;;4971500;28;21344;-77
2021/11/08 14:44:02;;;;;;;10.30;1.60;;;13.40;99.90;;;;;;4972655;28;20207;-73
2021/11/08 14:46:37;;;;;;;7.53;1.30;;;13.40;99.90;;;;;;4972452;28;20207;-71
2021/11/08 14:49:14;;;;;;;7.13;1.50;;;13.50;99.90;;;;;;4970300;28;20246;-72
2021/11/08 14:51:42;;;;;;;8.30;1.53;;;13.60;99.90;;;;;;4972233;28;20262;-71
2021/11/08 14:54:10;;;;;;;6.73;1.60;;;13.60;99.90;;;;;;4972293;28;20213;-72
2021/11/08 14:56:38;;;;;;;9.60;1.70;;;13.50;99.90;;;;;;4972482;28;20294;-72
2021/11/08 14:59:09;;;;;;;8.57;2.23;;;13.50;99.90;;;;;;4971705;28;20222;-72
2021/11/08 15:01:38;;;;;;;10.50;1.60;;;13.50;99.90;;;;;;4972341;28;20214;-72
2021/11/08 15:04:08;;;;;;;8.50;2.07;;;13.60;99.90;;;;;;4988064;23;20231;-74
2021/11/08 15:06:36;;;;;;;6.90;1.57;;;13.40;99.90;;;;;;4972246;28;20211;-77
2021/11/08 15:09:10;;;;;;;5.13;1.33;;;13.30;99.90;;;;;;4971483;28;20246;-84
2021/11/08 15:11:39;;;;;;;3.70;1.13;;;13.20;99.90;;;;;;4972310;28;20203;-75
2021/11/08 15:14:11;;;;;;;7.17;1.13;;;13.00;99.90;;;;;;4972154;28;20207;-73
2021/11/08 15:16:47;;;;;;;7.90;1.50;;;12.90;99.90;;;;;;4972005;28;20609;-73
2021/11/08 15:19:14;;;;;;;7.13;1.67;;;12.80;99.90;;;;;;4961243;28;20831;-73
2021/11/08 15:21:41;;;;;;;9.30;2.00;;;12.80;99.90;;;;;;4952988;29;20215;-73
2021/11/08 15:24:10;;;;;;;8.67;1.30;;;12.70;99.90;;;;;;4953188;28;20324;-72
2021/11/08 15:26:39;;;;;;;12.43;1.30;;;12.50;99.90;;;;;;4956116;29;20208;-73
2021/11/08 15:29:12;;;;;;;12.37;1.77;;;12.40;99.90;;;;;;4955981;28;20323;-73
2021/11/08 15:31:40;;;;;;;6.43;1.60;;;12.30;99.90;;;;;;4956096;29;20251;-73
2021/11/08 15:34:12;;;;;;;13.47;1.60;;;12.30;99.90;;;;;;4956550;29;20566;-75
2021/11/08 15:36:48;;;;;;;8.23;1.30;;;12.20;99.90;;;;;;4956295;29;20688;-74
2021/11/08 15:39:16;;;;;;;10.00;1.70;;;12.20;99.90;;;;;;4955922;28;20212;-73
2021/11/08 15:41:44;;;;;;;8.07;1.27;;;12.20;99.90;;;;;;4956082;29;20239;-76
2021/11/08 15:44:13;;;;;;;7.07;1.10;;;12.20;99.90;;;;;;4955343;29;20609;-73
2021/11/08 15:46:41;;;;;;;8.47;1.50;;;12.20;99.90;;;;;;4956158;29;20588;-77
2021/11/08 15:49:09;;;;;;;8.80;1.60;;;12.20;99.90;;;;;;4956924;29;20282;-77
2021/11/08 15:51:41;;;;;;;3.73;1.20;;;12.20;99.90;;;;;;4957224;29;20307;-79
2021/11/08 15:54:09;;;;;;;6.37;1.40;;;12.30;99.90;;;;;;4956981;29;20275;-75
2021/11/08 15:56:38;;;;;;;8.40;1.37;;;12.30;99.90;;;;;;4956522;29;20205;-75
2021/11/08 15:59:08;;;;;;;5.80;1.50;;;12.20;99.90;;;;;;4956747;28;20294;-74
2021/11/08 16:01:38;;;;;;;5.17;1.43;;;12.20;99.90;;;;;;4956719;29;20975;-73
2021/11/08 16:04:05;;;;;;;10.10;1.30;;;12.20;99.90;;;;;;4956170;28;20739;-73
2021/11/08 16:06:32;;;;;;;8.40;0.97;;;12.20;99.90;;;;;;4956904;29;20243;-74
2021/11/08 16:09:00;;;;;;;6.43;1.77;;;12.10;99.90;;;;;;4956388;28;20241;-74
2021/11/08 16:11:27;;;;;;;7.03;1.40;;;12.10;99.90;;;;;;4956589;29;20704;-76
2021/11/08 16:13:55;;;;;;;7.67;1.80;;;12.20;99.90;;;;;;4956704;29;20207;-76
2021/11/08 16:16:22;;;;;;;9.03;1.63;;;12.20;99.90;;;;;;4957138;29;20230;-74
2021/11/08 16:18:50;;;;;;;5.37;1.80;;;12.10;99.90;;;;;;4956648;29;20212;-72
2021/11/08 16:21:18;;;;;;;6.23;1.47;;;12.00;99.90;;;;;;4956878;29;20235;-76
2021/11/08 16:23:48;;;;;;;5.13;1.23;;;12.00;99.90;;;;;;4956259;29;20704;-74
2021/11/08 16:26:16;;;;;;;6.77;1.10;;;12.00;99.90;;;;;;4956489;29;20247;-74
2021/11/08 16:28:43;;;;;;;7.30;1.77;;;11.90;99.90;;;;;;4956394;28;20235;-74
2021/11/08 16:31:13;;;;;;;5.53;1.20;;;11.90;99.90;;;;;;4956663;29;20235;-76
2021/11/08 16:33:47;;;;;;;5.23;1.53;;;11.90;99.90;;;;;;4956751;29;20212;-75
2021/11/08 16:36:15;;;;;;;7.53;1.80;;;11.90;99.90;;;;;;4956113;28;20680;-73
2021/11/08 16:38:43;;;;;;;5.43;1.40;;;11.80;99.90;;;;;;4956337;28;20208;-74
2021/11/08 16:41:13;;;;;;;5.50;1.40;;;11.80;99.90;;;;;;4956719;29;20236;-77
2021/11/08 16:43:40;;;;;;;4.63;1.57;;;11.80;99.90;;;;;;4956657;29;20218;-77
2021/11/08 16:46:09;;;;;;;5.77;1.33;;;11.70;99.90;;;;;;4956733;29;20230;-74
2021/11/08 16:48:39;;;;;;;4.67;1.30;;;11.60;99.90;;;;;;4956030;28;20231;-75
2021/11/08 16:51:07;;;;;;;6.43;1.80;;;11.50;99.90;;;;;;4955668;29;20235;-76
2021/11/08 16:53:38;;;;;;;6.43;2.13;;;11.40;99.90;;;;;;4956042;29;20584;-73
2021/11/08 16:56:05;;;;;;;5.67;1.47;;;11.20;99.90;;;;;;4956339;29;20211;-76
2021/11/08 16:58:32;;;;;;;3.80;1.23;;;11.00;99.90;;;;;;4955962;28;20295;-74
2021/11/08 17:00:59;;;;;;;8.10;1.73;;;10.90;99.90;;;;;;4956201;29;20254;-74
2021/11/08 17:03:27;;;;;;;4.53;1.57;;;10.90;99.90;;;;;;4955908;28;20242;-73
2021/11/08 17:05:59;;;;;;;4.30;1.40;;;10.90;99.90;;;;;;4955513;29;20223;-73
2021/11/08 17:08:29;;;;;;;8.83;2.90;;;10.80;99.90;;;;;;4955538;28;20573;-73
2021/11/08 17:11:21;;;;;;;7.37;2.33;;;10.70;99.90;;;;;;4955759;29;20314;-75
2021/11/08 17:13:49;;;;;;;8.07;2.30;;;10.70;99.90;;;;;;4955658;29;20247;-74
2021/11/08 17:16:18;;;;;;;7.27;2.27;;;10.70;99.90;;;;;;4955672;29;20310;-74
2021/11/08 17:18:45;;;;;;;7.47;2.77;;;10.70;99.90;;;;;;4955016;28;20208;-73
2021/11/08 17:21:14;;;;;;;6.33;2.07;;;10.50;99.90;;;;;;4955585;29;20254;-73
2021/11/08 17:23:41;;;;;;;7.90;2.00;;;10.40;99.90;;;;;;4955791;29;20214;-75
2021/11/08 17:26:10;;;;;;;10.67;2.47;;;10.30;99.90;;;;;;4955704;29;20210;-75
2021/11/08 17:28:38;;;;;;;6.43;1.93;;;10.20;99.90;;;;;;4955040;28;20232;-75
2021/11/08 17:31:05;;;;;;;3.90;1.80;;;10.10;99.90;;;;;;4955408;29;20235;-76
2021/11/08 17:33:32;;;;;;;9.97;3.43;;;10.00;99.90;;;;;;4955438;29;20224;-73
2021/11/08 17:35:59;;;;;;;5.00;1.57;;;10.00;99.90;;;;;;4955701;29;20234;-75
2021/11/08 17:38:27;;;;;;;9.10;2.10;;;9.80;99.90;;;;;;4955309;28;20208;-75
2021/11/08 17:40:55;;;;;;;6.30;1.67;;;9.70;99.90;;;;;;4955076;29;20236;-75
2021/11/08 17:43:23;;;;;;;6.10;1.77;;;9.70;99.90;;;;;;4954928;29;20727;-75
2021/11/08 17:45:52;;;;;;;8.50;1.70;;;9.60;99.90;;;;;;4954883;29;20601;-75
2021/11/08 17:48:19;;;;;;;5.50;1.87;;;9.60;99.90;;;;;;4954473;28;20235;-76
2021/11/08 17:50:49;;;;;;;8.23;1.80;;;9.40;99.90;;;;;;4955054;29;20231;-75
2021/11/08 17:53:17;;;;;;;4.53;1.77;;;9.40;99.90;;;;;;4955010;29;20207;-75
2021/11/08 17:55:44;;;;;;;4.50;1.47;;;9.30;99.90;;;;;;4955025;29;20208;-75
2021/11/08 17:58:11;;;;;;;3.17;1.80;;;9.20;99.90;;;;;;4955422;29;20208;-75
2021/11/08 18:00:41;;;;;;;6.47;1.60;;;9.30;99.90;;;;;;4955127;29;20228;-74
2021/11/08 18:03:09;;;;;;;7.47;1.97;;;9.30;99.90;;;;;;4954729;29;20220;-73
2021/11/08 18:05:36;;;;;;;8.67;1.87;;;9.30;99.90;;;;;;4954556;29;20230;-73
2021/11/08 18:08:03;;;;;;;8.93;2.20;;;9.20;99.90;;;;;;4954593;29;20239;-74
2021/11/08 18:10:30;;;;;;;5.43;1.80;;;9.20;99.90;;;;;;4954607;28;20223;-74
2021/11/08 18:12:57;;;;;;;5.97;1.97;;;9.00;99.90;;;;;;4954972;29;20208;-74
2021/11/08 18:15:26;;;;;;;5.43;1.70;;;9.00;99.90;;;;;;4954986;29;20248;-75
2021/11/08 18:17:54;;;;;;;7.30;1.80;;;8.90;99.90;;;;;;4954226;29;20629;-75
2021/11/08 18:20:27;;;;;;;6.40;2.00;;;8.80;99.90;;;;;;4954311;28;20313;-72
2021/11/08 18:23:11;;;;;;;12.67;2.53;;;8.80;99.90;;;;;;4952714;29;20212;-75
2021/11/08 18:28:23;;;;;;;5.47;2.30;;;8.80;99.90;;;;;;4972417;28;20234;-76
2021/11/08 18:30:51;;;;;;;10.10;2.40;;;8.60;99.90;;;;;;4954507;29;20738;-78
2021/11/08 18:33:21;;;;;;;7.87;2.10;;;8.50;99.90;;;;;;4955079;29;20216;-78
2021/11/08 18:35:53;;;;;;;10.63;2.37;;;8.40;99.90;;;;;;4954485;29;20286;-77
2021/11/08 18:38:20;;;;;;;5.93;1.93;;;8.50;99.90;;;;;;4959201;28;20675;-78
2021/11/08 18:40:48;;;;;;;10.10;2.10;;;8.50;99.90;;;;;;4954175;29;20228;-78
2021/11/08 18:43:17;;;;;;;6.87;2.90;;;8.40;99.90;;;;;;4954616;29;20558;-78
2021/11/08 18:45:47;;;;;;;8.40;1.90;;;8.40;99.90;;;;;;4954664;29;20589;-74
2021/11/08 18:48:15;;;;;;;7.73;2.40;;;8.30;99.90;;;;;;4954290;28;20218;-73
2021/11/08 18:50:43;;;;;;;6.10;2.13;;;8.30;99.90;;;;;;4954025;29;20227;-74
2021/11/08 18:53:11;;;;;;;8.37;1.80;;;8.30;99.90;;;;;;4954325;29;20212;-77
2021/11/08 18:55:39;;;;;;;7.90;2.37;;;8.20;99.90;;;;;;4954336;29;20263;-73
2021/11/08 18:58:06;;;;;;;9.33;2.20;;;8.20;99.90;;;;;;4954565;29;20204;-73
2021/11/08 19:00:34;;;;;;;12.63;2.67;;;8.40;99.90;;;;;;4957679;28;20675;-73
2021/11/08 19:03:02;;;;;;;5.57;2.40;;;8.30;99.90;;;;;;4958327;29;20219;-76
2021/11/08 19:05:37;;;;;;;5.57;2.57;;;8.30;99.90;;;;;;4958048;29;20303;-73
2021/11/08 19:08:31;;;;;;;6.40;2.47;;;8.20;99.90;;;;;;4958266;29;20262;-72
2021/11/08 19:10:58;;;;;;;11.67;2.33;;;8.20;99.90;;;;;;4938880;29;20247;-71
2021/11/08 19:13:25;;;;;;;8.40;2.27;;;8.10;99.90;;;;;;4957654;29;20223;-73
2021/11/08 19:15:52;;;;;;;5.83;2.57;;;8.10;99.90;;;;;;4958025;29;20745;-74
2021/11/08 19:18:18;;;;;;;7.33;3.13;;;8.20;99.90;;;;;;4957923;28;20212;-73
2021/11/08 19:20:45;;;;;;;8.17;2.77;;;8.20;99.90;;;;;;4957812;29;20234;-74
2021/11/08 19:23:13;;;;;;;7.23;2.70;;;8.20;99.90;;;;;;4957660;29;20214;-74
2021/11/08 19:25:41;;;;;;;8.30;2.97;;;8.20;99.90;;;;;;4958062;29;20236;-74
2021/11/08 19:28:09;;;;;;;10.47;3.57;;;8.20;99.90;;;;;;4957666;29;20564;-74
2021/11/08 19:30:38;;;;;;;13.70;3.77;;;8.20;99.90;;;;;;4957463;29;20236;-74
2021/11/08 19:33:09;;;;;;;10.03;2.60;;;8.10;99.90;;;;;;4957789;29;20204;-74
2021/11/08 19:38:24;;;;;;;11.93;3.00;;;7.90;99.90;;;;;;4957446;29;20211;-74
2021/11/08 19:40:52;;;;;;;7.53;3.47;;;7.70;99.90;;;;;;4957402;29;20578;-74
2021/11/08 19:43:24;;;;;;;14.10;3.93;;;7.70;99.90;;;;;;4957663;29;20212;-74
2021/11/08 19:45:51;;;;;;;9.97;3.10;;;7.80;99.90;;;;;;4957389;29;20573;-73
2021/11/08 19:48:20;;;;;;;8.87;3.03;;;7.70;99.90;;;;;;4957248;28;20219;-74
2021/11/08 19:50:47;;;;;;;11.37;4.07;;;7.60;99.90;;;;;;4957480;29;20240;-75
2021/11/08 19:53:16;;;;;;;12.00;3.77;;;7.50;99.90;;;;;;4957447;29;20219;-74
2021/11/08 19:55:44;;;;;;;11.93;3.73;;;7.50;99.90;;;;;;4957066;29;20208;-72
2021/11/08 19:58:11;;;;;;;6.27;3.10;;;7.60;99.90;;;;;;4957200;29;20212;-74
2021/11/08 20:00:39;;;;;;;9.03;3.13;;;7.50;99.90;;;;;;4937670;29;20227;-73
2021/11/08 20:03:07;;;;;;;9.43;2.93;;;7.50;99.90;;;;;;4952664;28;20216;-73
2021/11/08 20:05:35;;;;;;;10.40;3.33;;;7.60;99.90;;;;;;4937908;29;20682;-73
2021/11/08 20:08:02;;;;;;;11.83;3.60;;;7.50;99.90;;;;;;4937903;29;20205;-73
2021/11/08 20:10:31;;;;;;;7.70;2.87;;;7.40;99.90;;;;;;4954674;28;20246;-74
2021/11/08 20:13:09;;;;;;;10.13;2.90;;;7.40;99.90;;;;;;4956833;29;20275;-73
2021/11/08 20:15:39;;;;;;;9.17;3.53;;;7.40;99.90;;;;;;4957127;29;20299;-73
2021/11/08 20:18:12;;;;;;;9.73;2.90;;;7.40;99.90;;;;;;4956805;29;20664;-73
2021/11/08 20:20:40;;;;;;;10.23;3.20;;;7.40;99.90;;;;;;4956572;29;20232;-74
2021/11/08 20:23:08;;;;;;;14.67;3.30;;;7.50;99.90;;;;;;4956731;29;20703;-74
2021/11/08 20:25:35;;;;;;;6.87;2.90;;;7.40;99.90;;;;;;4956591;29;20580;-74
2021/11/08 20:28:09;;;;;;;8.63;3.30;;;7.30;99.90;;;;;;4956553;29;20303;-73
2021/11/08 20:30:38;;;;;;;10.67;2.60;;;7.40;99.90;;;;;;4956645;28;20251;-73
2021/11/08 20:33:15;;;;;;;4.73;2.67;;;7.30;99.90;;;;;;4956606;29;20234;-74
2021/11/08 20:38:31;;;;;;;8.30;2.97;;;7.10;99.90;;;;;;4952639;28;20212;-74
2021/11/08 20:41:05;;;;;;;7.53;2.53;;;7.30;99.90;;;;;;4956844;29;20585;-73
2021/11/08 20:51:46;;;;;;;9.83;3.40;;;7.00;99.90;;;;;;4956223;29;20211;-74
2021/11/08 20:54:17;;;;;;;10.93;3.30;;;7.00;99.90;;;;;;4956020;29;20211;-74
2021/11/08 20:56:55;;;;;;;8.70;2.93;;;6.90;99.90;;;;;;4956045;29;20208;-75
2021/11/08 20:59:39;;;;;;;5.57;2.77;;;7.00;99.90;;;;;;4956344;28;20231;-75
2021/11/08 21:02:11;;;;;;;9.23;2.90;;;7.00;99.90;;;;;;4956013;29;20290;-74
2021/11/08 21:04:51;;;;;;;7.67;2.93;;;7.00;99.90;;;;;;4955231;29;20562;-73
2021/11/08 21:12:49;;;;;;;6.57;2.80;;;6.80;99.90;;;;;;4955657;29;20211;-74
2021/11/08 21:15:19;;;;;;;6.13;2.93;;;6.60;99.90;;;;;;4955205;29;20691;-74
2021/11/08 21:17:46;;;;;;;9.17;3.00;;;6.70;99.90;;;;;;4955495;29;20664;-74
2021/11/08 21:20:14;;;;;;;6.47;2.83;;;6.70;99.90;;;;;;4955525;28;20227;-73
2021/11/08 21:22:42;;;;;;;7.80;2.57;;;6.70;99.90;;;;;;4954628;28;20209;-74
2021/11/08 21:25:12;;;;;;;8.87;3.60;;;6.60;99.90;;;;;;4955412;29;20208;-73
2021/11/08 21:27:40;;;;;;;11.07;3.60;;;6.70;99.90;;;;;;4955344;29;20208;-74
2021/11/08 21:30:21;;;;;;;10.50;3.10;;;6.80;99.90;;;;;;4955206;28;20294;-73
2021/11/08 21:33:11;;;;;;;8.83;3.00;;;6.70;99.90;;;;;;4955598;29;20303;-73
2021/11/08 21:38:25;;;;;;;7.27;2.70;;;6.70;99.90;;;;;;4955583;29;20208;-74
2021/11/08 21:40:56;;;;;;;5.83;2.73;;;6.80;99.90;;;;;;4955331;28;20236;-74
2021/11/08 21:43:23;;;;;;;7.63;3.00;;;6.60;99.90;;;;;;4955270;29;20220;-73
2021/11/08 21:45:51;;;;;;;12.90;3.80;;;6.40;99.90;;;;;;4954904;29;20676;-73
2021/11/08 21:48:20;;;;;;;8.60;2.63;;;6.50;99.90;;;;;;4954895;29;20212;-73
2021/11/08 21:50:47;;;;;;;7.97;3.03;;;6.50;99.90;;;;;;4954590;28;20236;-73
2021/11/08 21:53:19;;;;;;;9.80;2.90;;;6.50;99.90;;;;;;4954858;29;20212;-74
2021/11/08 21:55:50;;;;;;;10.23;3.30;;;6.50;99.90;;;;;;4954936;29;20223;-73
2021/11/08 21:58:18;;;;;;;9.07;2.77;;;6.50;99.90;;;;;;4955200;29;20208;-74
2021/11/08 22:00:46;;;;;;;9.50;2.70;;;6.60;99.90;;;;;;4954963;28;20232;-74
2021/11/08 22:03:14;;;;;;;10.17;2.63;;;6.50;99.90;;;;;;4954639;28;20216;-73
2021/11/08 22:05:43;;;;;;;8.17;2.83;;;6.40;99.90;;;;;;4954292;29;20215;-73
2021/11/08 22:08:10;;;;;;;7.43;2.90;;;6.50;99.90;;;;;;4954792;29;20572;-73
2021/11/08 22:10:37;;;;;;;10.37;3.37;;;6.50;99.90;;;;;;4954490;28;20251;-73
2021/11/08 22:13:04;;;;;;;8.87;3.00;;;6.40;99.90;;;;;;4954950;29;20315;-74
2021/11/08 22:15:31;;;;;;;7.03;2.90;;;6.30;99.90;;;;;;4954833;29;20219;-74
2021/11/08 22:18:01;;;;;;;8.13;3.57;;;6.30;99.90;;;;;;4954745;29;20311;-75
2021/11/08 22:20:28;;;;;;;6.67;3.10;;;6.50;99.90;;;;;;4954532;28;20240;-73
2021/11/08 22:22:56;;;;;;;7.07;3.00;;;6.50;99.90;;;;;;4954884;29;20204;-73
2021/11/08 22:25:24;;;;;;;11.40;3.00;;;6.50;99.90;;;;;;4954340;29;20207;-73
2021/11/08 22:27:50;;;;;;;8.40;3.57;;;6.50;99.90;;;;;;4954882;29;20211;-73